createdAt,value
2019-02-22T00:02:19.926Z,5.43
2019-02-22T00:05:29.595Z,5.90
2019-02-22T00:08:38.292Z,6.00
2019-02-22T00:11:45.501Z,5.93
2019-02-22T00:14:53.074Z,5.43
2019-02-22T00:18:00.883Z,6.20
2019-02-22T00:21:08.272Z,5.87
2019-02-22T00:24:16.186Z,6.10
2019-02-22T00:31:50.905Z,5.97
2019-02-22T00:39:26.991Z,6.00
2019-02-22T00:42:34.635Z,6.87
2019-02-22T00:45:42.505Z,6.30
2019-02-22T00:48:50.073Z,6.17
2019-02-22T00:51:57.739Z,8.93
2019-02-22T00:55:05.650Z,8.60
2019-02-22T00:58:13.065Z,9.40
2019-02-22T01:01:20.657Z,9.83
2019-02-22T01:04:28.030Z,10.93
2019-02-22T01:07:35.946Z,10.00
2019-02-22T01:10:43.679Z,10.67
2019-02-22T01:13:50.983Z,10.33
2019-02-22T01:16:58.465Z,11.43
2019-02-22T01:20:06.145Z,12.03
2019-02-22T01:23:13.535Z,10.40
2019-02-22T01:26:21.043Z,10.30
2019-02-22T01:29:28.521Z,11.07
2019-02-22T01:32:35.826Z,10.97
2019-02-22T01:35:43.057Z,11.53
2019-02-22T01:38:50.997Z,11.27
2019-02-22T01:41:58.528Z,10.73
2019-02-22T01:45:06.606Z,11.43
2019-02-22T01:48:14.016Z,9.57
2019-02-22T01:51:21.326Z,9.90
2019-02-22T01:54:29.059Z,10.70
2019-02-22T01:57:36.705Z,10.67
2019-02-22T02:00:44.156Z,10.93
2019-02-22T02:03:51.785Z,10.90
2019-02-22T02:06:59.412Z,10.23
2019-02-22T02:10:07.178Z,10.60
2019-02-22T02:13:14.727Z,10.93
2019-02-22T02:16:22.345Z,10.53
2019-02-22T02:19:29.960Z,10.80
2019-02-22T02:22:37.372Z,11.63
2019-02-22T02:25:45.046Z,10.87
2019-02-22T02:28:52.476Z,11.90
2019-02-22T02:31:59.802Z,11.57
2019-02-22T02:35:07.584Z,12.37
2019-02-22T02:38:15.094Z,12.57
2019-02-22T02:41:22.479Z,12.23
2019-02-22T02:44:30.323Z,12.23
2019-02-22T02:47:37.800Z,10.17
2019-02-22T02:50:45.070Z,13.20
2019-02-22T02:53:52.247Z,12.53
2019-02-22T02:56:59.834Z,13.40
2019-02-22T03:00:07.531Z,12.90
2019-02-22T03:03:14.909Z,13.90
2019-02-22T03:06:29.607Z,15.03
2019-02-22T03:09:37.501Z,13.87
2019-02-22T03:12:44.801Z,14.73
2019-02-22T03:15:52.081Z,14.03
2019-02-22T03:18:59.276Z,13.77
2019-02-22T03:22:06.871Z,13.70
2019-02-22T03:25:14.151Z,14.27
2019-02-22T03:28:21.858Z,13.27
2019-02-22T03:31:29.450Z,14.47
2019-02-22T03:34:37.048Z,15.37
2019-02-22T03:37:44.439Z,14.60
2019-02-22T03:40:51.947Z,15.37
2019-02-22T03:43:59.457Z,15.53
2019-02-22T03:47:06.843Z,15.80
2019-02-22T03:50:14.639Z,16.73
2019-02-22T03:53:25.951Z,18.53
2019-02-22T03:56:33.347Z,18.43
2019-02-22T03:59:41.008Z,17.87
2019-02-22T04:02:48.592Z,17.97
2019-02-22T04:05:56.321Z,17.10
2019-02-22T04:09:09.645Z,18.60
2019-02-22T04:12:16.918Z,16.93
2019-02-22T04:15:24.205Z,17.20
2019-02-22T04:18:31.604Z,17.40
2019-02-22T04:21:44.297Z,18.27
2019-02-22T04:24:51.942Z,17.47
2019-02-22T04:27:59.401Z,17.37
2019-02-22T04:31:06.637Z,17.23
2019-02-22T04:34:14.293Z,18.67
2019-02-22T04:37:21.564Z,17.87
2019-02-22T04:40:28.733Z,18.70
2019-02-22T04:43:35.912Z,17.37
2019-02-22T04:46:43.608Z,18.70
2019-02-22T04:49:50.823Z,17.37
2019-02-22T04:52:58.003Z,16.83
2019-02-22T04:56:05.275Z,16.60
2019-02-22T04:59:12.662Z,17.33
2019-02-22T05:02:19.843Z,17.60
2019-02-22T05:05:27.115Z,17.97
2019-02-22T05:08:34.699Z,17.43
2019-02-22T05:11:42.003Z,18.10
2019-02-22T05:14:49.285Z,18.77
2019-02-22T05:17:56.727Z,17.10
2019-02-22T05:21:04.413Z,17.23
2019-02-22T05:24:12.230Z,17.23
2019-02-22T05:27:19.824Z,17.00
2019-02-22T05:30:27.203Z,16.93
2019-02-22T05:33:35.377Z,18.90
2019-02-22T05:36:44.220Z,17.57
2019-02-22T05:39:58.206Z,17.27
2019-02-22T05:43:05.792Z,16.73
2019-02-22T05:46:13.392Z,15.73
2019-02-22T05:49:22.410Z,18.03
2019-02-22T05:52:30.066Z,16.90
2019-02-22T05:55:37.490Z,17.10
2019-02-22T05:58:45.100Z,16.60
2019-02-22T06:01:52.832Z,16.97
2019-02-22T06:05:00.345Z,16.10
2019-02-22T06:08:08.961Z,17.93
2019-02-22T06:11:16.633Z,17.97
2019-02-22T06:14:24.283Z,18.10
2019-02-22T06:17:31.870Z,17.93
2019-02-22T06:20:39.456Z,18.87
2019-02-22T06:23:46.860Z,19.03
2019-02-22T06:26:54.505Z,19.50
2019-02-22T06:30:03.176Z,19.80
2019-02-22T06:33:10.855Z,19.47
2019-02-22T06:36:18.845Z,18.27
2019-02-22T06:39:27.140Z,19.63
2019-02-22T06:42:44.902Z,20.53
2019-02-22T06:45:44.653Z,19.80
2019-02-22T06:48:52.272Z,19.97
2019-02-22T06:52:00.344Z,19.40
2019-02-22T06:55:08.863Z,20.80
2019-02-22T06:58:16.678Z,21.13
2019-02-22T07:01:24.478Z,20.60
2019-02-22T07:04:32.010Z,20.53
2019-02-22T07:07:39.315Z,20.57
2019-02-22T07:11:15.752Z,22.43
2019-02-22T07:14:23.441Z,21.93
2019-02-22T07:17:30.984Z,21.43
2019-02-22T07:20:38.156Z,21.57
2019-02-22T07:23:45.348Z,21.70
2019-02-22T07:26:52.914Z,22.87
2019-02-22T07:30:00.989Z,21.23
2019-02-22T07:33:08.372Z,22.03
2019-02-22T07:36:15.643Z,20.73
2019-02-22T07:39:27.983Z,20.13
2019-02-22T07:42:31.900Z,19.40
2019-02-22T07:45:39.481Z,20.17
2019-02-22T07:48:46.647Z,19.83
2019-02-22T07:51:54.026Z,18.33
2019-02-22T07:55:01.310Z,19.03
2019-02-22T07:58:08.805Z,18.53
2019-02-22T08:01:16.159Z,18.77
2019-02-22T08:04:23.431Z,18.40
2019-02-22T08:07:30.955Z,19.20
2019-02-22T08:10:38.469Z,19.00
2019-02-22T08:13:45.956Z,19.37
2019-02-22T08:16:53.632Z,20.13
2019-02-22T08:20:01.287Z,18.60
2019-02-22T08:23:08.427Z,19.90
2019-02-22T08:26:15.703Z,19.37
2019-02-22T08:29:23.133Z,19.20
2019-02-22T08:32:30.346Z,20.77
2019-02-22T08:35:37.934Z,20.30
2019-02-22T08:38:46.382Z,19.73
2019-02-22T08:41:53.827Z,19.50
2019-02-22T08:45:01.329Z,18.77
2019-02-22T08:48:08.723Z,19.57
2019-02-22T08:51:16.232Z,18.57
2019-02-22T08:54:24.020Z,19.97
2019-02-22T08:57:31.390Z,18.97
2019-02-22T09:00:39.122Z,18.23
2019-02-22T09:03:50.248Z,19.43
2019-02-22T09:06:55.830Z,19.03
2019-02-22T09:10:03.799Z,17.53
2019-02-22T09:13:10.961Z,19.40
2019-02-22T09:16:18.248Z,20.57
2019-02-22T09:19:25.518Z,21.63
2019-02-22T09:22:33.143Z,19.50
2019-02-22T09:25:40.315Z,18.87
2019-02-22T09:28:47.507Z,19.10
2019-02-22T09:31:55.199Z,18.97
2019-02-22T09:35:03.011Z,19.27
2019-02-22T09:38:10.500Z,20.27
2019-02-22T09:41:18.112Z,19.47
2019-02-22T09:44:25.284Z,21.17
2019-02-22T09:47:32.618Z,20.67
2019-02-22T09:50:40.239Z,21.37
2019-02-22T09:53:47.402Z,21.03
2019-02-22T09:56:54.729Z,20.97
2019-02-22T10:00:02.244Z,20.10
2019-02-22T10:03:09.429Z,19.10
2019-02-22T10:06:16.616Z,20.47
2019-02-22T10:09:23.797Z,20.87
2019-02-22T10:12:30.963Z,21.07
2019-02-22T10:15:38.243Z,21.33
2019-02-22T10:18:45.423Z,19.73
2019-02-22T10:21:52.725Z,19.63
2019-02-22T10:25:00.157Z,19.80
2019-02-22T10:28:17.381Z,19.10
2019-02-22T10:31:17.044Z,18.70
2019-02-22T10:34:24.500Z,17.77
2019-02-22T10:37:31.666Z,17.03
2019-02-22T10:40:39.386Z,19.33
2019-02-22T10:43:46.766Z,19.03
2019-02-22T10:46:54.500Z,19.13
2019-02-22T10:50:01.772Z,21.83
2019-02-22T10:53:09.056Z,19.47
2019-02-22T10:56:16.242Z,18.70
2019-02-22T10:59:24.067Z,18.50
2019-02-22T11:02:31.494Z,20.63
2019-02-22T11:05:38.818Z,20.13
2019-02-22T11:08:46.241Z,18.80
2019-02-22T11:11:55.087Z,19.50
2019-02-22T11:15:03.379Z,19.70
2019-02-22T11:18:10.748Z,19.33
2019-02-22T11:21:18.041Z,19.27
2019-02-22T11:24:25.236Z,17.00
2019-02-22T11:27:32.871Z,17.93
2019-02-22T11:30:40.465Z,18.20
2019-02-22T11:33:47.742Z,18.20
2019-02-22T11:36:55.260Z,17.83
2019-02-22T11:40:03.246Z,17.07
2019-02-22T11:43:10.500Z,21.90
2019-02-22T11:46:18.221Z,18.93
2019-02-22T11:49:25.844Z,18.20
2019-02-22T11:52:33.595Z,16.70
2019-02-22T11:55:41.356Z,16.63
2019-02-22T11:58:48.706Z,17.37
2019-02-22T12:01:56.213Z,15.87
2019-02-22T12:05:04.271Z,13.10
2019-02-22T12:08:11.999Z,15.60
2019-02-22T12:11:19.392Z,16.40
2019-02-22T12:14:27.061Z,14.80
2019-02-22T12:17:35.164Z,15.80
2019-02-22T12:20:43.192Z,12.97
2019-02-22T12:23:52.883Z,13.23
2019-02-22T12:27:00.005Z,13.33
2019-02-22T12:30:10.368Z,14.33
2019-02-22T12:33:17.774Z,13.23
2019-02-22T12:36:25.194Z,13.33
2019-02-22T12:39:33.169Z,13.93
2019-02-22T12:42:40.653Z,13.40
2019-02-22T12:45:48.118Z,13.50
2019-02-22T12:48:55.680Z,12.30
2019-02-22T12:52:03.284Z,12.80
2019-02-22T12:55:11.277Z,12.90
2019-02-22T12:58:18.856Z,12.43
2019-02-22T13:01:26.467Z,11.47
2019-02-22T13:04:33.847Z,11.97
2019-02-22T13:07:41.689Z,9.10
2019-02-22T13:10:49.048Z,9.97
2019-02-22T13:13:56.235Z,11.83
2019-02-22T13:17:03.903Z,10.77
2019-02-22T13:20:11.844Z,11.37
2019-02-22T13:23:19.549Z,9.87
2019-02-22T13:26:27.167Z,11.90
2019-02-22T13:29:34.405Z,10.57
2019-02-22T13:32:41.854Z,10.93
2019-02-22T13:35:49.833Z,10.03
2019-02-22T13:38:58.214Z,10.37
2019-02-22T13:42:05.948Z,10.07
2019-02-22T13:45:25.619Z,9.83
2019-02-22T13:48:24.217Z,10.13
2019-02-22T13:51:33.968Z,10.03
2019-02-22T13:54:40.973Z,10.83
2019-02-22T13:57:48.523Z,10.57
2019-02-22T14:00:56.047Z,12.23
2019-02-22T14:04:03.534Z,11.57
2019-02-22T14:07:11.142Z,12.83
2019-02-22T14:10:19.775Z,12.30
2019-02-22T14:13:27.603Z,11.97
2019-02-22T14:16:35.268Z,12.10
2019-02-22T14:19:42.981Z,11.93
2019-02-22T14:22:51.252Z,11.70
2019-02-22T14:25:58.707Z,11.30
2019-02-22T14:29:06.280Z,10.63
2019-02-22T14:32:14.295Z,11.47
2019-02-22T14:35:21.809Z,11.83
2019-02-22T14:38:30.243Z,10.90
2019-02-22T14:41:38.277Z,10.10
2019-02-22T14:44:47.150Z,10.63
2019-02-22T14:47:55.056Z,9.93
2019-02-22T14:51:04.290Z,10.07
2019-02-22T14:54:12.105Z,11.30
2019-02-22T14:57:20.402Z,9.90
2019-02-22T15:00:28.314Z,10.90
2019-02-22T15:03:36.535Z,10.83
2019-02-22T15:06:47.541Z,10.33
2019-02-22T15:09:55.297Z,9.97
2019-02-22T15:13:02.806Z,9.40
2019-02-22T15:16:23.211Z,8.87
2019-02-22T15:19:30.929Z,10.27
2019-02-22T15:22:38.702Z,10.93
2019-02-22T15:25:46.882Z,9.70
2019-02-22T15:28:54.376Z,8.47
2019-02-22T15:32:02.106Z,8.23
2019-02-22T15:35:11.790Z,11.83
2019-02-22T15:38:20.202Z,10.30
2019-02-22T15:41:28.719Z,9.90
2019-02-22T15:44:37.465Z,9.20
2019-02-22T15:47:45.052Z,7.93
2019-02-22T15:50:53.479Z,8.67
2019-02-22T15:54:03.645Z,8.17
2019-02-22T15:57:11.022Z,9.00
2019-02-22T16:00:22.678Z,9.07
2019-02-22T16:03:49.282Z,8.90
2019-02-22T16:06:56.889Z,7.67
2019-02-22T16:10:04.852Z,9.23
2019-02-22T16:13:12.533Z,9.43
2019-02-22T16:16:23.238Z,8.17
2019-02-22T16:19:29.542Z,7.83
2019-02-22T16:22:37.097Z,8.87
2019-02-22T16:25:44.785Z,9.27
2019-02-22T16:28:52.981Z,8.27
2019-02-22T16:32:01.728Z,8.80
2019-02-22T16:35:09.773Z,9.13
2019-02-22T16:38:17.728Z,8.87
2019-02-22T16:41:25.538Z,8.23
2019-02-22T16:44:33.365Z,8.67
2019-02-22T16:47:41.513Z,8.43
2019-02-22T16:50:49.345Z,9.03
2019-02-22T16:53:58.893Z,8.20
2019-02-22T16:57:07.002Z,9.03
2019-02-22T17:00:15.771Z,8.07
2019-02-22T17:03:23.767Z,6.90
2019-02-22T17:06:31.232Z,6.37
2019-02-22T17:09:38.636Z,7.43
2019-02-22T17:12:46.947Z,7.90
2019-02-22T17:15:54.760Z,7.40
2019-02-22T17:19:02.278Z,7.03
2019-02-22T17:22:09.826Z,6.70
2019-02-22T17:25:17.373Z,6.33
2019-02-22T17:28:24.747Z,5.73
2019-02-22T17:31:32.870Z,6.00
2019-02-22T17:34:41.090Z,6.00
2019-02-22T17:37:48.785Z,6.00
2019-02-22T17:40:57.033Z,5.00
2019-02-22T17:44:04.810Z,5.03
2019-02-22T17:47:12.913Z,5.03
2019-02-22T17:50:20.395Z,5.13
2019-02-22T17:53:28.009Z,5.07
2019-02-22T17:56:35.809Z,5.43
2019-02-22T17:59:43.657Z,4.43
2019-02-22T18:02:51.240Z,4.63
2019-02-22T18:05:58.915Z,4.27
2019-02-22T18:09:07.707Z,4.10
2019-02-22T18:12:15.315Z,3.67
2019-02-22T18:15:23.217Z,4.50
2019-02-22T18:18:31.056Z,5.17
2019-02-22T18:21:39.052Z,5.13
2019-02-22T18:24:46.900Z,4.23
2019-02-22T18:27:55.348Z,4.57
2019-02-22T18:31:03.515Z,4.80
2019-02-22T18:34:12.248Z,4.50
2019-02-22T18:37:20.112Z,3.93
2019-02-22T18:40:27.961Z,4.47
2019-02-22T18:43:37.109Z,3.93
2019-02-22T18:46:45.066Z,4.00
2019-02-22T18:49:52.647Z,3.70
2019-02-22T18:53:00.846Z,4.30
2019-02-22T18:56:08.467Z,4.20
2019-02-22T18:59:16.047Z,3.93
2019-02-22T19:02:23.645Z,4.00
2019-02-22T19:05:31.346Z,4.03
2019-02-22T19:08:39.145Z,4.57
2019-02-22T19:11:46.571Z,4.33
2019-02-22T19:14:53.746Z,4.43
2019-02-22T19:18:01.226Z,3.93
2019-02-22T19:21:08.976Z,3.63
2019-02-22T19:24:16.168Z,3.60
2019-02-22T19:27:23.812Z,3.23
2019-02-22T19:30:31.733Z,3.07
2019-02-22T19:33:39.108Z,3.00
2019-02-22T19:36:46.625Z,2.90
2019-02-22T19:39:54.108Z,3.00
2019-02-22T19:43:01.547Z,3.67
2019-02-22T19:46:09.388Z,2.77
2019-02-22T19:49:17.017Z,3.10
2019-02-22T19:52:24.213Z,2.70
2019-02-22T19:55:31.500Z,2.50
2019-02-22T19:58:38.740Z,2.70
2019-02-22T20:01:46.073Z,3.37
2019-02-22T20:04:53.565Z,3.00
2019-02-22T20:08:01.494Z,3.17
2019-02-22T20:11:09.646Z,3.67
2019-02-22T20:14:18.241Z,2.37
2019-02-22T20:17:26.330Z,3.37
2019-02-22T20:20:34.275Z,3.33
2019-02-22T20:23:41.799Z,3.33
2019-02-22T20:26:49.621Z,3.13
2019-02-22T20:29:57.123Z,3.47
2019-02-22T20:33:04.611Z,5.33
2019-02-22T20:36:12.420Z,4.20
2019-02-22T20:39:20.226Z,4.20
2019-02-22T20:42:27.714Z,3.90
2019-02-22T20:45:35.157Z,4.83
2019-02-22T20:48:42.441Z,4.80
2019-02-22T20:51:49.847Z,4.30
2019-02-22T20:54:57.461Z,4.03
2019-02-22T20:58:05.213Z,4.43
2019-02-22T21:01:14.970Z,4.40
2019-02-22T21:04:22.783Z,4.83
2019-02-22T21:07:30.450Z,4.80
2019-02-22T21:10:37.746Z,5.40
2019-02-22T21:13:46.128Z,4.47
2019-02-22T21:16:53.899Z,4.97
2019-02-22T21:20:01.868Z,4.10
2019-02-22T21:23:09.574Z,4.97
2019-02-22T21:26:17.122Z,4.77
2019-02-22T21:29:24.792Z,3.40
2019-02-22T21:32:32.421Z,4.47
2019-02-22T21:35:39.812Z,4.73
2019-02-22T21:38:47.365Z,4.20
2019-02-22T21:41:55.376Z,4.63
2019-02-22T21:45:03.369Z,4.73
2019-02-22T21:48:11.075Z,4.60
2019-02-22T21:51:18.488Z,4.63
2019-02-22T21:54:25.893Z,4.40
2019-02-22T21:57:33.369Z,4.03
2019-02-22T22:00:40.743Z,5.33
2019-02-22T22:03:51.318Z,5.00
2019-02-22T22:06:58.201Z,4.80
2019-02-22T22:10:06.337Z,5.43
2019-02-22T22:13:14.210Z,5.47
2019-02-22T22:16:21.708Z,4.87
2019-02-22T22:19:29.004Z,4.83
2019-02-22T22:22:36.807Z,4.93
2019-02-22T22:25:44.416Z,5.27
2019-02-22T22:28:51.713Z,4.87
2019-02-22T22:31:58.981Z,5.20
2019-02-22T22:35:07.629Z,5.57
2019-02-22T22:38:15.622Z,5.80
2019-02-22T22:41:23.319Z,5.80
2019-02-22T22:44:31.142Z,5.33
2019-02-22T22:47:39.042Z,5.33
2019-02-22T22:50:46.240Z,5.50
2019-02-22T22:53:53.993Z,4.90
2019-02-22T22:57:01.821Z,5.17
2019-02-22T23:01:02.331Z,5.47
2019-02-22T23:04:09.758Z,5.10
2019-02-22T23:07:17.283Z,5.20
2019-02-22T23:10:24.678Z,5.87
2019-02-22T23:13:32.886Z,6.07
2019-02-22T23:16:40.562Z,5.70
2019-02-22T23:19:48.337Z,6.57
2019-02-22T23:22:55.520Z,6.30
2019-02-22T23:26:03.696Z,5.87
2019-02-22T23:29:12.300Z,6.13
2019-02-22T23:32:20.020Z,5.50
2019-02-22T23:35:27.510Z,5.30
2019-02-22T23:38:34.901Z,5.77
2019-02-22T23:41:42.582Z,5.20
2019-02-22T23:44:49.756Z,5.50
2019-02-22T23:47:57.467Z,5.10
2019-02-22T23:51:04.968Z,5.63
2019-02-22T23:54:12.371Z,5.20
2019-02-22T23:57:19.590Z,4.97
